Time;durP1;ratioP1;P1;durP2;ratioP2;P2;SDS_P1;SDS_P2;PMS_P1;PMS_P2;Temp;Humidity;BMP_temperature;BMP_pressure;BME280_temperature;BME280_humidity;BME280_pressure;Samples;Min_cycle;Max_cycle;Signal;HPM_P1;HPM_P2
2024/03/24 00:01:43;;;;;;;4.30;3.20;;;;;;;3.41;82.28;95665.64;108278;1278;22525;-73
2024/03/24 00:04:16;;;;;;;4.30;2.90;;;;;;;3.39;82.36;95672.70;108285;1278;22646;-74
2024/03/24 00:06:46;;;;;;;5.00;2.90;;;;;;;3.37;82.31;95677.27;108300;1277;25415;-74
2024/03/24 00:09:17;;;;;;;5.80;3.10;;;;;;;3.36;82.21;95672.92;108288;1278;22526;-74
2024/03/24 00:11:48;;;;;;;3.70;2.70;;;;;;;3.34;82.09;95662.59;108284;1278;22539;-74
2024/03/24 00:14:18;;;;;;;5.50;2.70;;;;;;;3.32;82.03;95655.00;108277;1277;22584;-74
2024/03/24 00:16:49;;;;;;;5.80;3.00;;;;;;;3.30;81.87;95649.44;108334;1277;22584;-74
2024/03/24 00:19:21;;;;;;;4.00;2.80;;;;;;;3.29;81.83;95643.15;108316;1277;22557;-74
2024/03/24 00:21:52;;;;;;;5.30;3.00;;;;;;;3.29;81.66;95645.56;108268;1273;22513;-74
2024/03/24 00:24:23;;;;;;;4.60;2.80;;;;;;;3.30;81.55;95649.34;108291;1277;25412;-73
2024/03/24 00:26:54;;;;;;;5.70;2.80;;;;;;;3.31;81.50;95641.73;108297;1276;22545;-74
2024/03/24 00:29:24;;;;;;;5.00;2.80;;;;;;;3.36;81.46;95635.41;108325;1277;24212;-74
2024/03/24 00:31:55;;;;;;;6.40;3.10;;;;;;;3.41;81.28;95621.35;108274;1273;25317;-74
2024/03/24 00:34:26;;;;;;;5.00;2.90;;;;;;;3.42;81.10;95608.58;108307;1278;22542;-74
2024/03/24 00:36:59;;;;;;;6.30;2.70;;;;;;;3.40;80.74;95594.69;108312;1277;22542;-74
2024/03/24 00:39:29;;;;;;;6.80;2.90;;;;;;;3.41;80.90;95571.42;108270;1277;24227;-74
2024/03/24 00:42:00;;;;;;;4.80;2.70;;;;;;;3.45;80.91;95553.19;108280;1277;22506;-74
2024/03/24 00:44:31;;;;;;;6.70;2.40;;;;;;;3.47;80.62;95530.30;108323;1268;22528;-74
2024/03/24 00:47:02;;;;;;;5.00;2.70;;;;;;;3.45;80.38;95507.71;108332;1278;22580;-74
2024/03/24 00:49:32;;;;;;;6.00;2.60;;;;;;;3.42;79.98;95484.97;108256;1278;22572;-74
2024/03/24 00:52:05;;;;;;;5.10;2.60;;;;;;;3.39;79.90;95484.92;108296;1278;25281;-73
2024/03/24 00:54:36;;;;;;;4.00;2.00;;;;;;;3.33;79.84;95507.95;108270;1277;25497;-74
2024/03/24 00:57:07;;;;;;;6.50;2.30;;;;;;;3.32;79.75;95517.05;108300;1278;22551;-74
2024/03/24 00:59:40;;;;;;;4.90;1.70;;;;;;;3.25;79.52;95512.91;108304;1278;25355;-73
2024/03/24 01:02:11;;;;;;;6.80;2.50;;;;;;;3.17;79.36;95511.42;108269;1277;22530;-74
2024/03/24 01:04:41;;;;;;;4.50;2.20;;;;;;;3.14;79.24;95511.84;108284;1277;22565;-74
2024/03/24 01:07:14;;;;;;;4.90;2.30;;;;;;;3.15;79.10;95519.54;108298;1277;22545;-74
2024/03/24 01:09:45;;;;;;;4.00;2.30;;;;;;;3.11;78.99;95524.61;108288;1277;24408;-73
2024/03/24 01:12:16;;;;;;;6.30;2.10;;;;;;;3.03;78.81;95525.26;108244;1278;22540;-73
2024/03/24 01:14:47;;;;;;;5.20;2.20;;;;;;;2.95;78.85;95518.04;108272;1277;22535;-74
2024/03/24 01:17:17;;;;;;;4.20;2.50;;;;;;;2.95;79.05;95521.77;108274;1277;22549;-74
2024/03/24 01:19:51;;;;;;;5.90;2.30;;;;;;;2.90;78.97;95527.19;108267;1272;22578;-74
2024/03/24 01:22:22;;;;;;;4.80;2.10;;;;;;;2.88;79.00;95535.40;108262;1277;25248;-73
2024/03/24 01:24:52;;;;;;;4.90;2.20;;;;;;;2.85;79.00;95541.94;108309;1278;24016;-74
2024/03/24 01:27:23;;;;;;;3.80;2.20;;;;;;;2.79;79.01;95548.50;108303;1277;22533;-73
2024/03/24 01:29:53;;;;;;;3.30;1.90;;;;;;;2.75;79.04;95539.54;108307;1279;22532;-73
2024/03/24 01:32:24;;;;;;;5.90;2.30;;;;;;;2.67;78.87;95540.38;108295;1278;26533;-73
2024/03/24 01:34:55;;;;;;;5.50;2.10;;;;;;;2.60;79.02;95543.08;108293;1278;22530;-73
2024/03/24 01:37:26;;;;;;;8.70;2.40;;;;;;;2.55;79.06;95562.25;108306;1278;22641;-73
2024/03/24 01:39:56;;;;;;;6.20;2.10;;;;;;;2.51;79.31;95564.56;108268;1279;22529;-73
2024/03/24 01:42:27;;;;;;;5.00;2.30;;;;;;;2.49;79.37;95554.52;108290;1276;22567;-74
2024/03/24 01:44:57;;;;;;;4.90;2.00;;;;;;;2.45;79.50;95541.99;108254;1279;22533;-74
2024/03/24 01:47:28;;;;;;;6.50;2.90;;;;;;;2.44;79.66;95539.84;108300;1274;22541;-73
2024/03/24 01:49:58;;;;;;;3.90;2.10;;;;;;;2.41;79.69;95541.04;108250;1278;22523;-73
2024/03/24 01:52:30;;;;;;;5.60;2.60;;;;;;;2.40;79.73;95541.29;108273;1272;25011;-74
2024/03/24 01:55:01;;;;;;;4.40;2.20;;;;;;;2.38;79.95;95543.31;108332;1278;22552;-73
2024/03/24 01:57:34;;;;;;;4.50;2.40;;;;;;;2.37;80.00;95544.76;108313;1277;22540;-73
2024/03/24 02:00:08;;;;;;;3.90;2.10;;;;;;;2.38;80.11;95546.59;108305;1278;22525;-73
2024/03/24 02:02:39;;;;;;;4.20;2.40;;;;;;;2.40;80.00;95553.33;108319;1277;24436;-73
2024/03/24 02:05:12;;;;;;;6.30;2.20;;;;;;;2.41;80.14;95562.23;108276;1279;22516;-73
2024/03/24 02:07:43;;;;;;;4.80;2.40;;;;;;;2.45;80.25;95561.55;108268;1279;22539;-73
2024/03/24 02:10:13;;;;;;;6.30;2.50;;;;;;;2.50;80.26;95563.66;108259;1278;22540;-73
2024/03/24 02:12:44;;;;;;;4.10;2.00;;;;;;;2.53;80.25;95575.94;108153;1276;24153;-73
2024/03/24 02:15:15;;;;;;;4.60;1.80;;;;;;;2.59;80.41;95584.66;108313;1279;25233;-73
2024/03/24 02:17:46;;;;;;;5.00;2.30;;;;;;;2.66;80.44;95582.91;108284;1275;25455;-73
2024/03/24 02:20:16;;;;;;;5.40;2.10;;;;;;;2.75;80.65;95570.92;108267;1278;22623;-73
2024/03/24 02:22:47;;;;;;;7.80;2.40;;;;;;;2.82;80.54;95565.59;108306;1278;22561;-73
2024/03/24 02:25:18;;;;;;;3.60;2.30;;;;;;;2.81;80.44;95565.11;108252;1278;22996;-73
2024/03/24 02:27:48;;;;;;;6.10;2.60;;;;;;;2.73;80.48;95569.41;108339;1278;25240;-73
2024/03/24 02:30:19;;;;;;;4.60;2.10;;;;;;;2.65;80.56;95574.86;108251;1271;22537;-74
2024/03/24 02:32:51;;;;;;;6.20;2.30;;;;;;;2.60;80.79;95571.59;108291;1278;22582;-74
2024/03/24 02:35:22;;;;;;;3.80;2.00;;;;;;;2.56;80.81;95568.27;108249;1278;24292;-74
2024/03/24 02:37:52;;;;;;;5.80;2.10;;;;;;;2.55;80.91;95568.74;108276;1278;22532;-73
2024/03/24 02:40:25;;;;;;;7.50;2.70;;;;;;;2.50;80.82;95564.66;108261;1278;22679;-73
2024/03/24 02:42:55;;;;;;;8.10;2.50;;;;;;;2.49;80.98;95560.27;108282;1278;25682;-73
2024/03/24 02:45:28;;;;;;;6.30;2.50;;;;;;;2.50;80.78;95561.99;108263;1278;22556;-73
2024/03/24 02:47:59;;;;;;;6.50;2.80;;;;;;;2.50;80.92;95554.46;108272;1278;22584;-74
2024/03/24 02:50:29;;;;;;;6.80;3.30;;;;;;;2.50;80.81;95549.59;108281;1278;22540;-74
2024/03/24 02:53:00;;;;;;;6.80;2.10;;;;;;;2.50;80.89;95543.79;108242;1278;24411;-73
2024/03/24 02:55:31;;;;;;;5.50;2.80;;;;;;;2.53;81.03;95536.80;108280;1276;22603;-73
2024/03/24 02:58:01;;;;;;;5.10;2.60;;;;;;;2.54;81.07;95542.89;108289;1278;23059;-73
2024/03/24 03:00:32;;;;;;;9.10;2.90;;;;;;;2.54;81.00;95539.13;108261;1278;24227;-74
2024/03/24 03:03:03;;;;;;;4.90;2.10;;;;;;;2.56;80.97;95551.48;108276;1273;22540;-73
2024/03/24 03:05:34;;;;;;;5.30;2.40;;;;;;;2.54;80.82;95559.63;108272;1278;22543;-73
2024/03/24 03:08:06;;;;;;;3.60;2.00;;;;;;;2.51;80.64;95554.94;108292;1278;22569;-73
2024/03/24 03:10:37;;;;;;;6.50;2.20;;;;;;;2.47;80.54;95546.91;108320;1273;25424;-74
2024/03/24 03:13:07;;;;;;;5.30;2.40;;;;;;;2.43;80.54;95545.08;108194;1278;22537;-73
2024/03/24 03:15:38;;;;;;;5.20;2.40;;;;;;;2.40;80.72;95548.35;108262;1278;24377;-73
2024/03/24 03:18:09;;;;;;;4.80;2.00;;;;;;;2.40;80.59;95548.82;108273;1278;22527;-73
2024/03/24 03:20:39;;;;;;;3.90;2.20;;;;;;;2.36;80.60;95543.96;108259;1276;22542;-74
2024/03/24 03:23:10;;;;;;;5.30;2.40;;;;;;;2.34;80.53;95534.75;108265;1278;24533;-74
2024/03/24 03:25:41;;;;;;;4.50;2.00;;;;;;;2.35;80.51;95520.79;108267;1279;22532;-74
2024/03/24 03:28:13;;;;;;;5.30;2.50;;;;;;;2.32;80.49;95523.92;108277;1274;22525;-73
2024/03/24 03:30:46;;;;;;;4.10;1.90;;;;;;;2.32;80.61;95524.55;108281;1278;22532;-73
2024/03/24 03:33:17;;;;;;;5.40;2.50;;;;;;;2.36;80.84;95509.92;108279;1278;22784;-73
2024/03/24 03:35:48;;;;;;;4.90;2.10;;;;;;;2.39;80.79;95516.69;108297;1276;22538;-73
2024/03/24 03:38:19;;;;;;;5.60;1.90;;;;;;;2.39;80.79;95519.77;108317;1278;22529;-73
2024/03/24 03:40:49;;;;;;;3.70;2.00;;;;;;;2.42;80.81;95520.70;108265;1279;22540;-73
2024/03/24 03:43:21;;;;;;;7.90;3.00;;;;;;;2.45;80.88;95511.85;108313;1278;23946;-73
2024/03/24 03:45:53;;;;;;;4.80;2.30;;;;;;;2.46;80.95;95518.71;108270;1277;22552;-73
2024/03/24 03:48:23;;;;;;;6.40;2.70;;;;;;;2.47;80.83;95531.74;108292;1278;22524;-73
2024/03/24 03:50:54;;;;;;;6.80;2.50;;;;;;;2.49;81.01;95533.48;108132;1279;22536;-73
2024/03/24 03:53:25;;;;;;;5.40;2.70;;;;;;;2.52;80.99;95521.66;108269;1278;25300;-74
2024/03/24 03:55:58;;;;;;;5.40;2.50;;;;;;;2.57;81.18;95514.86;108283;1278;25253;-73
2024/03/24 03:58:29;;;;;;;5.00;3.30;;;;;;;2.64;80.90;95520.69;108256;1278;24229;-73
2024/03/24 04:00:59;;;;;;;5.60;2.80;;;;;;;2.66;80.86;95523.56;108314;1278;26624;-73
2024/03/24 04:03:32;;;;;;;5.30;2.50;;;;;;;2.68;80.85;95529.83;108308;1278;22562;-73
2024/03/24 04:06:06;;;;;;;5.20;3.00;;;;;;;2.67;80.92;95522.55;108298;1270;23335;-73
2024/03/24 04:08:37;;;;;;;4.20;2.60;;;;;;;2.67;80.98;95531.38;108226;1276;22575;-73
2024/03/24 04:11:15;;;;;;;6.30;2.90;;;;;;;2.66;81.01;95525.35;108298;1272;22549;-73
2024/03/24 04:13:47;;;;;;;7.30;3.10;;;;;;;2.59;80.84;95510.52;108314;1278;22541;-73
2024/03/24 04:16:18;;;;;;;4.70;2.90;;;;;;;2.50;80.70;95492.36;108289;1278;22697;-73
2024/03/24 04:18:49;;;;;;;4.60;3.00;;;;;;;2.47;80.91;95480.00;108312;1278;22540;-73
2024/03/24 04:21:20;;;;;;;7.50;3.40;;;;;;;2.40;80.80;95480.66;108270;1277;22642;-74
2024/03/24 04:23:51;;;;;;;7.00;3.30;;;;;;;2.38;81.05;95490.98;108277;1278;22520;-73
2024/03/24 04:26:22;;;;;;;8.60;3.30;;;;;;;2.37;81.06;95493.50;108315;1278;22541;-73
2024/03/24 04:28:52;;;;;;;5.40;2.80;;;;;;;2.34;81.23;95499.45;108298;1278;24484;-73
2024/03/24 04:31:25;;;;;;;6.90;3.10;;;;;;;2.35;81.38;95501.08;108272;1277;22822;-73
2024/03/24 04:33:55;;;;;;;5.40;3.20;;;;;;;2.36;81.42;95509.65;108278;1278;25252;-73
2024/03/24 04:36:26;;;;;;;8.20;3.80;;;;;;;2.37;81.50;95516.98;108280;1278;22528;-73
2024/03/24 04:38:57;;;;;;;8.50;3.20;;;;;;;2.37;81.49;95518.13;108285;1278;22563;-74
2024/03/24 04:41:28;;;;;;;6.10;3.40;;;;;;;2.32;81.34;95530.30;108299;1278;22551;-75
2024/03/24 04:43:58;;;;;;;6.60;3.10;;;;;;;2.24;81.34;95530.82;108261;1278;25027;-74
2024/03/24 04:46:29;;;;;;;4.90;3.00;;;;;;;2.18;81.65;95534.39;108325;1278;24248;-74
2024/03/24 04:48:59;;;;;;;7.50;3.40;;;;;;;2.17;81.78;95532.34;108383;1278;22530;-73
2024/03/24 04:51:30;;;;;;;6.00;3.70;;;;;;;2.16;81.94;95540.49;108423;1278;25275;-74
2024/03/24 04:54:00;;;;;;;7.90;3.20;;;;;;;2.13;82.01;95541.27;108392;1276;22525;-74
2024/03/24 04:56:32;;;;;;;7.20;3.40;;;;;;;2.15;82.30;95536.67;108425;1277;25282;-73
2024/03/24 04:59:03;;;;;;;5.70;3.00;;;;;;;2.22;82.46;95532.32;108414;1278;23853;-74
2024/03/24 05:01:33;;;;;;;8.60;3.40;;;;;;;2.33;82.59;95529.05;108418;1278;22534;-74
2024/03/24 05:04:05;;;;;;;5.80;3.00;;;;;;;2.46;82.58;95526.56;108399;1277;22533;-75
2024/03/24 05:06:35;;;;;;;5.80;3.20;;;;;;;2.51;82.49;95526.69;108377;1278;22538;-75
2024/03/24 05:09:08;;;;;;;6.80;3.10;;;;;;;2.60;82.49;95526.17;108363;1277;22531;-73
2024/03/24 05:11:40;;;;;;;4.20;2.70;;;;;;;2.69;82.57;95526.05;108285;1278;24270;-73
2024/03/24 05:14:10;;;;;;;6.00;2.90;;;;;;;2.78;82.46;95530.23;108286;1272;22590;-72
2024/03/24 05:16:41;;;;;;;5.00;2.90;;;;;;;2.83;82.49;95533.35;108302;1278;22532;-73
2024/03/24 05:19:11;;;;;;;7.10;3.20;;;;;;;2.88;82.52;95533.16;108281;1278;22555;-73
2024/03/24 05:21:43;;;;;;;6.10;3.20;;;;;;;2.88;82.23;95534.98;108286;1278;27089;-73
2024/03/24 05:24:14;;;;;;;4.50;2.70;;;;;;;2.83;82.15;95529.38;108306;1278;24329;-73
2024/03/24 05:26:44;;;;;;;4.70;2.80;;;;;;;2.76;82.08;95524.20;108282;1278;22537;-73
2024/03/24 05:29:15;;;;;;;5.50;3.10;;;;;;;2.73;82.25;95520.69;108312;1277;22536;-73
2024/03/24 05:31:56;;;;;;;7.20;3.40;;;;;;;2.78;82.28;95519.13;108283;1278;22529;-73
2024/03/24 05:34:27;;;;;;;5.80;3.00;;;;;;;2.90;82.59;95520.33;108319;1268;24587;-73
2024/03/24 05:36:58;;;;;;;5.40;3.00;;;;;;;3.02;82.55;95513.20;108278;1276;22671;-73
2024/03/24 05:39:28;;;;;;;4.80;2.80;;;;;;;3.13;82.57;95508.83;108280;1278;22541;-73
2024/03/24 05:41:58;;;;;;;6.20;3.10;;;;;;;3.72;83.36;95504.75;108275;1278;24104;-73
2024/03/24 05:44:29;;;;;;;5.70;3.50;;;;;;;4.20;82.09;95505.73;108257;1278;22641;-73
2024/03/24 05:47:00;;;;;;;5.30;3.30;;;;;;;4.21;81.21;95503.15;108215;1273;22528;-73
2024/03/24 05:49:31;;;;;;;4.80;3.60;;;;;;;4.23;81.21;95500.89;108237;1277;24104;-73
2024/03/24 05:52:01;;;;;;;4.80;3.40;;;;;;;4.17;80.65;95507.77;108239;1278;23732;-73
2024/03/24 05:54:32;;;;;;;5.80;3.70;;;;;;;4.05;80.43;95506.27;108271;1278;22556;-73
2024/03/24 05:57:03;;;;;;;6.30;4.00;;;;;;;3.92;80.62;95495.31;108221;1270;22556;-73
2024/03/24 05:59:33;;;;;;;7.70;4.20;;;;;;;3.84;80.67;95482.53;108286;1278;22552;-73
2024/03/24 06:02:04;;;;;;;8.60;4.30;;;;;;;3.78;80.47;95475.02;108262;1278;22533;-73
2024/03/24 06:04:35;;;;;;;7.20;3.80;;;;;;;3.70;80.41;95470.48;108236;1278;22539;-73
2024/03/24 06:07:10;;;;;;;8.40;3.80;;;;;;;3.90;81.27;95476.65;108114;1273;189995;-73
2024/03/24 06:09:41;;;;;;;5.80;3.90;;;;;;;5.27;82.14;95477.14;108292;1278;23766;-73
2024/03/24 06:12:11;;;;;;;6.10;3.20;;;;;;;6.81;81.14;95472.70;108218;1278;25249;-73
2024/03/24 06:14:42;;;;;;;6.70;3.90;;;;;;;8.34;79.69;95478.06;108300;1273;22543;-73
2024/03/24 06:17:13;;;;;;;6.90;4.10;;;;;;;9.64;78.17;95472.23;108333;1278;22634;-74
2024/03/24 06:19:43;;;;;;;5.20;3.80;;;;;;;10.86;76.00;95467.41;108390;1278;23469;-72
2024/03/24 06:22:14;;;;;;;4.20;3.40;;;;;;;11.68;74.05;95476.36;108412;1278;25289;-73
2024/03/24 06:24:45;;;;;;;5.10;3.70;;;;;;;12.16;71.59;95477.98;108449;1273;22752;-74
2024/03/24 06:27:16;;;;;;;6.10;3.40;;;;;;;12.94;70.80;95484.08;108432;1278;22686;-74
2024/03/24 06:29:46;;;;;;;6.10;3.90;;;;;;;13.98;69.60;95484.95;108415;1278;22538;-74
2024/03/24 06:32:17;;;;;;;5.40;3.40;;;;;;;14.92;68.73;95477.61;108354;1278;22550;-74
2024/03/24 06:34:48;;;;;;;5.40;3.40;;;;;;;15.81;66.24;95472.38;108295;1273;22546;-74
2024/03/24 06:37:18;;;;;;;4.80;3.40;;;;;;;16.17;63.90;95472.30;108290;1271;24226;-74
2024/03/24 06:39:51;;;;;;;5.30;3.00;;;;;;;16.09;59.67;95471.45;108298;1278;22538;-74
2024/03/24 06:42:21;;;;;;;3.50;2.40;;;;;;;14.73;56.83;95478.05;108290;1276;22543;-74
2024/03/24 06:44:56;;;;;;;5.40;3.10;;;;;;;12.56;53.30;95482.35;108310;1277;22528;-74
2024/03/24 06:47:27;;;;;;;4.90;2.80;;;;;;;10.96;54.36;95490.64;108265;1278;22530;-74
2024/03/24 06:49:58;;;;;;;4.40;3.50;;;;;;;9.56;55.00;95497.61;108291;1278;22532;-74
2024/03/24 06:52:28;;;;;;;5.20;3.50;;;;;;;8.26;55.97;95500.34;108223;1278;22534;-74
2024/03/24 06:54:59;;;;;;;5.70;4.00;;;;;;;7.46;58.03;95504.79;108275;1277;22545;-73
2024/03/24 06:57:32;;;;;;;5.60;3.30;;;;;;;6.84;59.58;95507.92;108254;1272;22553;-74
2024/03/24 07:00:03;;;;;;;6.10;3.90;;;;;;;6.49;60.62;95511.58;108290;1273;22550;-74
2024/03/24 07:02:34;;;;;;;4.90;3.60;;;;;;;6.22;61.93;95505.77;108284;1271;25600;-73
2024/03/24 07:05:06;;;;;;;4.00;3.00;;;;;;;5.94;63.13;95507.52;108304;1278;22525;-73
2024/03/24 07:07:37;;;;;;;5.10;3.90;;;;;;;6.21;64.59;95505.36;108333;1278;22571;-74
2024/03/24 07:10:10;;;;;;;6.30;4.00;;;;;;;7.85;63.68;95498.50;108268;1278;22641;-73
2024/03/24 07:12:41;;;;;;;4.40;3.30;;;;;;;9.06;61.18;95499.14;108270;1271;22659;-73
2024/03/24 07:15:13;;;;;;;5.20;3.80;;;;;;;9.62;58.46;95496.34;108293;1278;24230;-74
2024/03/24 07:17:43;;;;;;;6.00;3.50;;;;;;;9.95;57.34;95494.66;108377;1278;24814;-74
2024/03/24 07:20:15;;;;;;;5.20;3.80;;;;;;;10.30;56.79;95493.85;108320;1278;22531;-74
2024/03/24 07:22:45;;;;;;;4.80;3.50;;;;;;;10.86;56.16;95496.27;108257;1277;22529;-74
2024/03/24 07:25:16;;;;;;;5.30;4.00;;;;;;;11.49;55.91;95494.80;108287;1278;22535;-74
2024/03/24 07:27:47;;;;;;;4.20;3.60;;;;;;;12.41;55.57;95496.83;108304;1278;25408;-74
2024/03/24 07:30:18;;;;;;;4.80;3.30;;;;;;;12.44;54.14;95493.84;108276;1273;22558;-74
2024/03/24 07:32:49;;;;;;;5.40;4.00;;;;;;;11.40;53.67;95501.21;108277;1279;24217;-74
2024/03/24 07:35:19;;;;;;;6.20;4.30;;;;;;;11.44;54.87;95501.81;108268;1278;26561;-74
2024/03/24 07:37:50;;;;;;;5.00;3.90;;;;;;;12.26;55.15;95499.77;108288;1278;24153;-74
2024/03/24 07:40:22;;;;;;;5.60;3.80;;;;;;;11.92;54.27;95498.47;108260;1278;22621;-74
2024/03/24 07:42:53;;;;;;;5.20;3.70;;;;;;;11.09;53.92;95497.73;108291;1278;22585;-74
2024/03/24 07:45:24;;;;;;;5.30;3.40;;;;;;;9.63;54.13;95494.33;108282;1274;22547;-74
2024/03/24 07:47:55;;;;;;;4.70;3.70;;;;;;;8.33;55.44;95496.30;108301;1278;24283;-74
2024/03/24 07:50:26;;;;;;;6.50;4.20;;;;;;;7.67;57.22;95500.91;108285;1278;22660;-74
2024/03/24 07:52:58;;;;;;;5.00;3.50;;;;;;;7.35;58.18;95497.19;108266;1273;22538;-74
2024/03/24 07:55:30;;;;;;;5.50;3.90;;;;;;;7.01;59.15;95502.89;108314;1270;24331;-74
2024/03/24 07:58:00;;;;;;;7.10;4.10;;;;;;;6.73;60.12;95505.27;108317;1276;22628;-74
2024/03/24 08:00:31;;;;;;;7.10;4.10;;;;;;;6.50;61.10;95514.13;108240;1278;22648;-74
2024/03/24 08:03:02;;;;;;;6.20;3.80;;;;;;;6.43;62.00;95518.20;108306;1278;22529;-74
2024/03/24 08:05:33;;;;;;;4.20;3.40;;;;;;;6.45;62.60;95520.40;108287;1278;23859;-73
2024/03/24 08:08:04;;;;;;;6.50;3.70;;;;;;;6.38;62.86;95513.64;108286;1277;22562;-74
2024/03/24 08:10:35;;;;;;;5.20;3.80;;;;;;;6.17;63.21;95519.55;108309;1277;22981;-74
2024/03/24 08:13:06;;;;;;;5.10;3.70;;;;;;;5.86;63.76;95525.77;108297;1277;22540;-74
2024/03/24 08:15:37;;;;;;;5.30;3.60;;;;;;;5.65;64.44;95523.43;108251;1271;22556;-74
2024/03/24 08:18:08;;;;;;;7.40;3.70;;;;;;;5.47;64.95;95533.48;108303;1277;22576;-74
2024/03/24 08:20:46;;;;;;;6.40;3.20;;;;;;;5.27;65.26;95538.95;108312;1271;22556;-73
2024/03/24 08:23:17;;;;;;;6.90;3.70;;;;;;;5.01;65.86;95543.64;108339;1277;22580;-74
2024/03/24 08:25:48;;;;;;;7.40;3.60;;;;;;;4.77;66.48;95541.45;108284;1276;23317;-74
2024/03/24 08:28:20;;;;;;;4.30;3.30;;;;;;;4.55;68.05;95540.24;108281;1272;22602;-74
2024/03/24 08:30:52;;;;;;;3.20;2.10;;;;;;;4.26;70.10;95538.25;108316;1277;25531;-74
2024/03/24 08:33:24;;;;;;;9.80;7.70;;;;;;;3.95;72.47;95529.87;108273;1277;22604;-74
2024/03/24 08:35:54;;;;;;;5.40;4.60;;;;;;;3.77;73.03;95537.98;108330;1271;24295;-74
2024/03/24 08:38:26;;;;;;;6.50;4.30;;;;;;;3.66;73.46;95540.81;108243;1272;22533;-74
2024/03/24 08:40:57;;;;;;;4.20;3.60;;;;;;;3.65;74.22;95539.50;108321;1278;22592;-74
2024/03/24 08:43:27;;;;;;;12.20;10.20;;;;;;;4.00;75.27;95535.06;108293;1271;25283;-75
2024/03/24 08:45:58;;;;;;;4.40;3.10;;;;;;;4.59;75.17;95538.92;108400;1277;25439;-74
2024/03/24 08:48:29;;;;;;;5.70;3.70;;;;;;;4.67;74.74;95532.52;108421;1277;22594;-75
2024/03/24 08:51:00;;;;;;;5.90;3.60;;;;;;;4.60;74.53;95537.77;108425;1278;26532;-75
2024/03/24 08:53:31;;;;;;;7.00;4.40;;;;;;;4.51;74.62;95534.65;108340;1277;25417;-75
2024/03/24 08:56:03;;;;;;;4.90;4.10;;;;;;;4.50;75.29;95533.29;108275;1278;22549;-75
2024/03/24 08:58:33;;;;;;;5.50;4.30;;;;;;;5.57;77.44;95525.37;108323;1278;22533;-75
2024/03/24 09:01:04;;;;;;;6.10;3.70;;;;;;;6.46;76.61;95522.66;108295;1278;22620;-75
2024/03/24 09:03:35;;;;;;;4.30;3.60;;;;;;;6.83;75.24;95521.07;108269;1273;22644;-75
2024/03/24 09:06:07;;;;;;;5.70;4.10;;;;;;;6.99;74.72;95512.23;108205;1277;22532;-75
2024/03/24 09:08:38;;;;;;;4.30;3.60;;;;;;;7.22;74.46;95511.65;108304;1271;24519;-75
2024/03/24 09:11:09;;;;;;;5.40;3.80;;;;;;;7.34;74.14;95511.13;108254;1277;22565;-75
2024/03/24 09:13:40;;;;;;;6.10;4.00;;;;;;;7.37;73.40;95507.55;108272;1277;22546;-75
2024/03/24 09:16:11;;;;;;;5.70;3.60;;;;;;;7.49;72.99;95500.63;108258;1275;22524;-75
2024/03/24 09:18:41;;;;;;;5.10;3.50;;;;;;;7.46;71.96;95494.98;108252;1278;24310;-75
2024/03/24 09:21:12;;;;;;;5.20;3.60;;;;;;;7.45;71.06;95493.79;108314;1275;24256;-75
2024/03/24 09:23:43;;;;;;;5.50;3.70;;;;;;;7.21;70.36;95490.03;108258;1277;22537;-75
2024/03/24 09:26:14;;;;;;;6.20;3.80;;;;;;;6.82;69.62;95483.71;108279;1277;25301;-75
2024/03/24 09:28:48;;;;;;;5.90;3.40;;;;;;;6.40;69.84;95486.75;108259;1278;22550;-75
2024/03/24 09:31:19;;;;;;;6.20;4.40;;;;;;;6.06;70.36;95485.86;108191;1278;22574;-75
2024/03/24 09:33:50;;;;;;;5.00;3.50;;;;;;;5.92;71.06;95486.30;108295;1271;22535;-75
2024/03/24 09:36:20;;;;;;;6.10;3.80;;;;;;;6.19;71.86;95485.54;108277;1272;22540;-75
2024/03/24 09:38:51;;;;;;;5.30;3.60;;;;;;;6.61;72.42;95482.59;108303;1278;22530;-74
2024/03/24 09:41:26;;;;;;;6.50;3.90;;;;;;;7.01;72.14;95482.38;108324;1277;22543;-75
2024/03/24 09:43:59;;;;;;;5.60;3.50;;;;;;;7.42;72.19;95481.70;108279;1271;24280;-74
2024/03/24 09:46:30;;;;;;;6.90;3.90;;;;;;;7.61;71.29;95475.78;108273;1278;24315;-74
2024/03/24 09:49:02;;;;;;;4.70;3.30;;;;;;;7.62;70.53;95471.70;108254;1277;22572;-74
2024/03/24 09:51:38;;;;;;;6.50;4.40;;;;;;;7.01;67.84;95505.66;108275;1275;22555;-74
2024/03/24 09:54:13;;;;;;;2.20;1.80;;;;;;;6.39;67.84;95500.02;108256;1277;22540;-74
2024/03/24 09:56:45;;;;;;;3.90;1.60;;;;;;;5.69;67.53;95492.60;108292;1278;22663;-74
2024/03/24 09:59:25;;;;;;;7.60;4.00;;;;;;;5.12;68.54;95504.30;108271;1278;22526;-74
2024/03/24 10:01:56;;;;;;;7.50;4.40;;;;;;;5.01;69.20;95512.95;108274;1277;22529;-74
2024/03/24 10:04:28;;;;;;;2.80;2.30;;;;;;;4.88;69.58;95512.21;108343;1277;22534;-74
2024/03/24 10:06:59;;;;;;;2.70;1.90;;;;;;;4.65;70.61;95506.48;108250;1277;22527;-74
2024/03/24 10:09:31;;;;;;;2.50;1.80;;;;;;;4.37;71.41;95512.63;108372;1270;22761;-74
2024/03/24 10:12:13;;;;;;;1.80;1.60;;;;;;;4.20;72.75;95511.35;108224;1271;22537;-74
2024/03/24 10:14:45;;;;;;;1.40;1.30;;;;;;;3.98;74.24;95509.79;108355;1270;24208;-74
2024/03/24 10:17:19;;;;;;;5.30;3.60;;;;;;;3.95;75.36;95505.76;108304;1277;22528;-74
2024/03/24 10:19:51;;;;;;;3.50;2.40;;;;;;;3.91;76.06;95518.96;108304;1277;25415;-74
2024/03/24 10:22:22;;;;;;;3.50;2.10;;;;;;;3.89;76.75;95521.38;108263;1278;23405;-74
2024/03/24 10:24:55;;;;;;;4.50;3.20;;;;;;;3.76;77.11;95536.78;108290;1278;25268;-74
2024/03/24 10:27:29;;;;;;;3.90;2.20;;;;;;;3.56;77.12;95540.06;108334;1270;22565;-74
2024/03/24 10:30:00;;;;;;;3.30;2.50;;;;;;;3.33;77.23;95546.09;108237;1278;22566;-74
2024/03/24 10:32:33;;;;;;;2.90;2.60;;;;;;;3.10;77.27;95554.40;108286;1271;22558;-74
2024/03/24 10:35:09;;;;;;;4.70;3.10;;;;;;;2.88;77.99;95549.13;108285;1278;22552;-74
2024/03/24 10:37:43;;;;;;;4.10;2.80;;;;;;;2.74;78.46;95548.38;108256;1274;22532;-74
2024/03/24 10:40:15;;;;;;;3.30;2.50;;;;;;;2.64;78.72;95548.58;108292;1278;22529;-74
2024/03/24 10:42:52;;;;;;;4.70;2.80;;;;;;;2.66;79.00;95544.51;108245;1278;22557;-74
2024/03/24 10:45:26;;;;;;;23.00;13.90;;;;;;;2.68;79.11;95548.30;108310;1273;22540;-74
2024/03/24 10:48:04;;;;;;;7.00;4.30;;;;;;;2.63;79.01;95551.14;108252;1271;22539;-74
2024/03/24 10:50:41;;;;;;;4.30;3.10;;;;;;;2.58;79.49;95552.33;108247;1278;22539;-73
2024/03/24 10:53:15;;;;;;;5.10;3.60;;;;;;;2.53;79.80;95555.59;108281;1278;22592;-74
2024/03/24 10:55:48;;;;;;;7.60;6.80;;;;;;;2.51;80.12;95553.16;108267;1278;25299;-74
2024/03/24 10:58:21;;;;;;;6.20;4.60;;;;;;;2.53;80.38;95544.65;108307;1277;22543;-74
2024/03/24 11:00:53;;;;;;;5.40;4.40;;;;;;;2.64;80.74;95537.19;108293;1278;22553;-73
2024/03/24 11:03:25;;;;;;;3.70;3.30;;;;;;;2.84;80.97;95536.07;108295;1271;22533;-73
2024/03/24 11:05:57;;;;;;;14.90;8.90;;;;;;;3.02;81.07;95529.33;108251;1278;24986;-73
2024/03/24 11:08:27;;;;;;;10.70;7.20;;;;;;;3.18;81.20;95530.75;108283;1271;25341;-73
2024/03/24 11:11:01;;;;;;;7.30;4.90;;;;;;;3.37;81.54;95525.66;108294;1278;22556;-74
2024/03/24 11:13:36;;;;;;;7.00;4.30;;;;;;;3.60;81.98;95522.92;108297;1272;22536;-74
2024/03/24 11:16:10;;;;;;;9.20;7.00;;;;;;;3.80;81.85;95515.81;108260;1276;23991;-74
2024/03/24 11:18:42;;;;;;;7.90;5.40;;;;;;;3.99;81.86;95519.23;108247;1278;22533;-73
2024/03/24 11:21:31;;;;;;;7.00;4.70;;;;;;;4.04;81.40;95520.01;108285;1278;22535;-74
2024/03/24 11:24:02;;;;;;;5.60;3.10;;;;;;;3.95;81.42;95525.36;108262;1272;22568;-73
2024/03/24 11:26:34;;;;;;;5.00;3.80;;;;;;;3.61;81.38;95525.50;108302;1278;22531;-73
2024/03/24 11:29:05;;;;;;;10.80;6.50;;;;;;;3.46;82.43;95520.76;108324;1278;22818;-74
2024/03/24 11:31:38;;;;;;;6.70;4.80;;;;;;;3.48;83.24;95510.86;108306;1272;22539;-74
2024/03/24 11:34:13;;;;;;;10.60;5.80;;;;;;;3.69;84.31;95509.77;108260;1278;22561;-74
2024/03/24 11:36:49;;;;;;;5.00;4.30;;;;;;;4.01;84.60;95507.58;108366;1275;22567;-73
2024/03/24 11:39:20;;;;;;;5.90;4.30;;;;;;;4.23;84.01;95505.88;108258;1278;22627;-73
2024/03/24 11:42:08;;;;;;;5.20;4.50;;;;;;;4.48;84.70;95502.37;108304;1277;25523;-74
2024/03/24 11:44:41;;;;;;;6.40;4.90;;;;;;;4.64;83.71;95495.55;108329;1271;22560;-74
2024/03/24 11:47:14;;;;;;;4.70;3.70;;;;;;;4.80;83.78;95497.34;108318;1272;22753;-74
2024/03/24 11:49:52;;;;;;;4.30;3.40;;;;;;;5.06;83.57;95488.55;108299;1277;22588;-74
2024/03/24 11:52:24;;;;;;;4.90;3.70;;;;;;;5.27;83.09;95489.71;108264;1277;22596;-73